createdAt,value
2022-11-05T00:00:36.861Z,86.20
2022-11-05T00:03:22.921Z,86.10
2022-11-05T00:06:10.708Z,86.10
2022-11-05T00:08:56.182Z,86.10
2022-11-05T00:11:43.280Z,86.20
2022-11-05T00:14:28.800Z,86.40
2022-11-05T00:16:55.829Z,86.40
2022-11-05T00:19:22.791Z,86.40
2022-11-05T00:22:08.241Z,86.50
2022-11-05T00:24:53.699Z,86.60
2022-11-05T00:27:20.752Z,86.70
2022-11-05T00:29:47.760Z,86.60
2022-11-05T00:32:14.701Z,86.60
2022-11-05T00:34:41.651Z,86.60
2022-11-05T00:37:08.597Z,86.60
2022-11-05T00:39:35.569Z,86.90
2022-11-05T00:42:20.939Z,86.50
2022-11-05T00:45:03.080Z,86.40
2022-11-05T00:47:50.435Z,86.40
2022-11-05T00:50:18.485Z,86.50
2022-11-05T00:52:59.355Z,86.60
2022-11-05T00:55:42.260Z,86.80
2022-11-05T00:58:13.589Z,86.90
2022-11-05T01:00:45.558Z,86.90
2022-11-05T01:03:15.568Z,87.10
2022-11-05T01:05:51.081Z,87.30
2022-11-05T01:08:20.198Z,87.40
2022-11-05T01:10:53.519Z,87.40
2022-11-05T01:13:23.081Z,87.40
2022-11-05T01:15:53.571Z,87.50
2022-11-05T01:18:22.768Z,87.50
2022-11-05T01:20:50.324Z,87.60
2022-11-05T01:23:17.673Z,87.60
2022-11-05T01:25:44.810Z,87.60
2022-11-05T01:28:11.772Z,87.50
2022-11-05T01:30:39.184Z,87.50
2022-11-05T01:33:06.261Z,87.50
2022-11-05T01:35:33.300Z,87.60
2022-11-05T01:38:00.505Z,87.80
2022-11-05T01:40:27.681Z,87.80
2022-11-05T01:42:54.711Z,87.80
2022-11-05T01:45:25.582Z,87.90
2022-11-05T01:48:01.447Z,88.10
2022-11-05T01:50:34.347Z,88.30
2022-11-05T01:53:08.502Z,88.60
2022-11-05T01:55:41.717Z,88.70
2022-11-05T01:58:12.224Z,88.70
2022-11-05T02:00:42.101Z,88.80
2022-11-05T02:03:10.582Z,88.80
2022-11-05T02:05:40.263Z,88.80
2022-11-05T02:08:13.441Z,88.80
2022-11-05T02:10:42.984Z,88.80
2022-11-05T02:13:10.256Z,88.90
2022-11-05T02:16:14.563Z,89.00
2022-11-05T02:19:21.035Z,89.10
2022-11-05T02:22:06.456Z,89.20
2022-11-05T02:25:02.746Z,89.30
2022-11-05T02:27:35.976Z,89.40
2022-11-05T02:30:26.568Z,89.60
2022-11-05T02:33:19.125Z,89.80
2022-11-05T02:35:46.029Z,90.00
2022-11-05T02:38:33.182Z,90.30
2022-11-05T02:41:14.596Z,90.10
2022-11-05T02:43:44.701Z,90.20
2022-11-05T02:46:33.330Z,90.20
2022-11-05T02:49:18.095Z,90.20
2022-11-05T02:51:58.345Z,90.30
2022-11-05T02:54:54.106Z,90.30
2022-11-05T02:57:23.941Z,90.50
2022-11-05T03:00:01.837Z,90.50
2022-11-05T03:02:29.119Z,90.60
2022-11-05T03:04:56.281Z,90.60
2022-11-05T03:07:58.856Z,90.60
2022-11-05T03:10:58.033Z,90.60
2022-11-05T03:13:43.965Z,90.70
2022-11-05T03:16:20.452Z,90.60
2022-11-05T03:19:07.939Z,90.60
2022-11-05T03:21:55.206Z,90.30
2022-11-05T03:24:35.605Z,90.20
2022-11-05T03:27:15.486Z,90.30
2022-11-05T03:29:54.288Z,90.50
2022-11-05T03:32:22.931Z,90.80
2022-11-05T03:35:01.157Z,90.90
2022-11-05T03:37:37.666Z,90.90
2022-11-05T03:40:08.701Z,91.10
2022-11-05T03:42:38.305Z,91.10
2022-11-05T03:45:19.959Z,91.10
2022-11-05T03:47:50.522Z,91.10
2022-11-05T03:50:23.956Z,91.20
2022-11-05T03:53:02.134Z,91.20
2022-11-05T03:55:35.309Z,91.20
2022-11-05T03:58:04.301Z,91.20
2022-11-05T04:00:31.373Z,91.20
2022-11-05T04:02:58.531Z,91.20
2022-11-05T04:05:25.620Z,91.10
2022-11-05T04:08:14.337Z,91.10
2022-11-05T04:11:00.124Z,91.10
2022-11-05T04:13:27.980Z,91.10
2022-11-05T04:16:15.057Z,91.10
2022-11-05T04:18:42.945Z,91.10
2022-11-05T04:21:29.376Z,91.00
2022-11-05T04:24:08.758Z,90.90
2022-11-05T04:26:44.193Z,90.90
2022-11-05T04:29:30.071Z,90.90
2022-11-05T04:31:57.419Z,90.90
2022-11-05T04:34:24.689Z,90.90
2022-11-05T04:36:53.165Z,90.80
2022-11-05T04:39:21.437Z,90.80
2022-11-05T04:41:48.815Z,90.70
2022-11-05T04:44:16.720Z,90.70
2022-11-05T04:46:43.833Z,90.60
2022-11-05T04:49:10.888Z,90.60
2022-11-05T04:51:37.863Z,90.50
2022-11-05T04:54:04.915Z,90.50
2022-11-05T04:56:32.083Z,90.80
2022-11-05T04:58:59.054Z,90.40
2022-11-05T05:01:26.205Z,90.40
2022-11-05T05:03:54.711Z,90.40
2022-11-05T05:06:22.679Z,90.30
2022-11-05T05:08:51.519Z,90.20
2022-11-05T05:11:20.777Z,90.20
2022-11-05T05:13:48.742Z,90.30
2022-11-05T05:16:24.267Z,90.30
2022-11-05T05:18:52.494Z,90.30
2022-11-05T05:21:40.362Z,90.30
2022-11-05T05:24:18.791Z,90.30
2022-11-05T05:26:48.801Z,90.20
2022-11-05T05:29:16.848Z,90.20
2022-11-05T05:31:44.658Z,90.10
2022-11-05T05:34:13.520Z,90.10
2022-11-05T05:36:40.623Z,90.10
2022-11-05T05:39:08.371Z,90.10
2022-11-05T05:41:35.358Z,90.10
2022-11-05T05:44:04.223Z,90.10
2022-11-05T05:46:31.177Z,90.10
2022-11-05T05:48:58.217Z,90.00
2022-11-05T05:51:25.185Z,90.10
2022-11-05T05:53:54.742Z,90.10
2022-11-05T05:56:22.051Z,90.10
2022-11-05T05:58:49.078Z,90.10
2022-11-05T06:01:20.020Z,90.10
2022-11-05T06:03:48.551Z,90.10
2022-11-05T06:06:19.835Z,90.10
2022-11-05T06:08:47.649Z,90.00
2022-11-05T06:11:14.724Z,90.00
2022-11-05T06:13:41.798Z,89.90
2022-11-05T06:16:09.872Z,90.00
2022-11-05T06:18:37.179Z,89.90
2022-11-05T06:21:12.146Z,89.80
2022-11-05T06:23:40.747Z,89.90
2022-11-05T06:26:10.500Z,89.80
2022-11-05T06:28:37.591Z,89.80
2022-11-05T06:31:05.105Z,89.60
2022-11-05T06:33:32.278Z,89.50
2022-11-05T06:36:00.532Z,89.60
2022-11-05T06:38:29.338Z,89.70
2022-11-05T06:40:58.659Z,89.70
2022-11-05T06:43:26.522Z,89.70
2022-11-05T06:45:53.801Z,89.60
2022-11-05T06:48:20.805Z,89.40
2022-11-05T06:50:47.934Z,89.30
2022-11-05T06:53:14.995Z,89.10
2022-11-05T06:55:42.017Z,88.90
2022-11-05T06:58:09.015Z,88.70
2022-11-05T07:00:35.998Z,88.50
2022-11-05T07:03:07.885Z,88.40
2022-11-05T07:05:38.669Z,88.40
2022-11-05T07:08:06.487Z,88.30
2022-11-05T07:10:33.674Z,88.20
2022-11-05T07:13:06.642Z,88.00
2022-11-05T07:15:34.961Z,87.90
2022-11-05T07:18:02.502Z,87.70
2022-11-05T07:20:33.981Z,87.60
2022-11-05T07:23:11.517Z,87.50
2022-11-05T07:25:39.353Z,87.50
2022-11-05T07:28:08.483Z,87.60
2022-11-05T07:30:36.518Z,87.50
2022-11-05T07:33:03.908Z,87.30
2022-11-05T07:35:31.374Z,87.00
2022-11-05T07:37:58.670Z,86.30
2022-11-05T07:40:27.709Z,85.70
2022-11-05T07:43:00.717Z,85.40
2022-11-05T07:45:29.529Z,85.60
2022-11-05T07:48:03.483Z,85.70
2022-11-05T07:50:36.523Z,85.80
2022-11-05T07:53:21.434Z,85.80
2022-11-05T07:55:48.430Z,85.80
2022-11-05T07:58:15.373Z,85.90
2022-11-05T08:00:42.415Z,85.80
2022-11-05T08:03:18.522Z,85.80
2022-11-05T08:05:47.798Z,86.50
2022-11-05T08:08:18.107Z,85.90
2022-11-05T08:10:45.541Z,85.90
2022-11-05T08:13:13.607Z,86.10
2022-11-05T08:15:42.267Z,86.10
2022-11-05T08:18:15.621Z,86.10
2022-11-05T08:20:44.145Z,85.50
2022-11-05T08:23:11.901Z,84.90
2022-11-05T08:25:39.927Z,84.50
2022-11-05T08:28:10.760Z,84.40
2022-11-05T08:30:38.155Z,84.60
2022-11-05T08:33:11.702Z,84.90
2022-11-05T08:35:39.830Z,84.90
2022-11-05T08:38:09.021Z,84.80
2022-11-05T08:40:36.933Z,84.70
2022-11-05T08:43:06.870Z,84.60
2022-11-05T08:45:38.324Z,84.50
2022-11-05T08:48:15.949Z,84.40
2022-11-05T08:50:44.342Z,83.20
2022-11-05T08:53:12.371Z,82.80
2022-11-05T08:55:39.708Z,82.80
2022-11-05T08:58:12.509Z,82.40
2022-11-05T09:00:40.117Z,82.10
2022-11-05T09:03:09.014Z,82.00
2022-11-05T09:05:39.165Z,81.60
2022-11-05T09:08:07.927Z,81.10
2022-11-05T09:10:35.746Z,80.60
2022-11-05T09:13:03.027Z,79.70
2022-11-05T09:15:30.316Z,79.20
2022-11-05T09:17:57.760Z,79.80
2022-11-05T09:20:24.879Z,79.00
2022-11-05T09:22:51.878Z,78.80
2022-11-05T09:25:18.965Z,79.30
2022-11-05T09:27:45.969Z,76.90
2022-11-05T09:30:13.764Z,76.60
2022-11-05T09:32:40.941Z,75.40
2022-11-05T09:35:08.919Z,75.90
2022-11-05T09:37:38.891Z,76.30
2022-11-05T09:40:06.688Z,76.70
2022-11-05T09:42:41.320Z,76.70
2022-11-05T09:45:17.347Z,76.40
2022-11-05T09:47:58.292Z,76.00
2022-11-05T09:50:33.767Z,76.00
2022-11-05T09:53:01.941Z,75.90
2022-11-05T09:55:42.006Z,75.80
2022-11-05T09:58:36.168Z,74.90
2022-11-05T10:01:06.899Z,74.80
2022-11-05T10:03:38.163Z,74.70
2022-11-05T10:06:09.245Z,74.40
2022-11-05T10:08:43.368Z,74.50
2022-11-05T10:11:28.474Z,74.00
2022-11-05T10:14:07.744Z,74.20
2022-11-05T10:16:39.700Z,74.00
2022-11-05T10:19:14.708Z,72.80
2022-11-05T10:22:05.692Z,72.60
2022-11-05T10:24:30.212Z,72.60
2022-11-05T10:26:58.365Z,73.50
2022-11-05T10:29:29.672Z,73.80
2022-11-05T10:31:58.528Z,73.60
2022-11-05T10:34:38.181Z,72.70
2022-11-05T10:37:05.770Z,71.70
2022-11-05T10:39:34.042Z,70.70
2022-11-05T10:42:30.499Z,68.70
2022-11-05T10:45:16.098Z,66.50
2022-11-05T10:47:59.993Z,66.40
2022-11-05T10:50:29.759Z,66.00
2022-11-05T10:53:11.753Z,63.40
2022-11-05T10:55:43.925Z,61.90
2022-11-05T10:58:13.742Z,61.50
2022-11-05T11:00:40.945Z,62.40
2022-11-05T11:03:33.938Z,62.50
2022-11-05T11:06:11.853Z,61.50
2022-11-05T11:08:38.827Z,59.50
2022-11-05T11:11:10.611Z,59.80
2022-11-05T11:14:03.490Z,60.10
2022-11-05T11:16:41.801Z,59.50
2022-11-05T11:19:23.888Z,59.90
2022-11-05T11:22:05.843Z,59.30
2022-11-05T11:24:44.318Z,59.80
2022-11-05T11:27:25.983Z,59.80
2022-11-05T11:29:58.518Z,59.70
2022-11-05T11:32:34.160Z,57.40
2022-11-05T11:35:02.207Z,55.40
2022-11-05T11:37:33.199Z,56.40
2022-11-05T11:40:17.043Z,55.80
2022-11-05T11:42:54.851Z,55.60
2022-11-05T11:46:04.916Z,52.90
2022-11-05T11:48:36.254Z,53.20
2022-11-05T11:51:29.251Z,52.50
2022-11-05T11:53:59.342Z,52.80
2022-11-05T11:56:26.957Z,52.90
2022-11-05T11:58:56.410Z,50.10
2022-11-05T12:01:35.373Z,50.40
2022-11-05T12:04:24.004Z,48.20
2022-11-05T12:07:09.790Z,48.60
2022-11-05T12:10:11.586Z,48.70
2022-11-05T12:12:58.930Z,49.40
2022-11-05T12:15:32.260Z,49.90
2022-11-05T12:18:09.799Z,49.70
2022-11-05T12:20:39.509Z,48.00
2022-11-05T12:23:21.558Z,48.60
2022-11-05T12:25:57.475Z,48.30
2022-11-05T12:29:18.001Z,47.50
2022-11-05T12:32:35.012Z,48.70
2022-11-05T12:35:22.916Z,48.20
2022-11-05T12:38:17.970Z,46.60
2022-11-05T12:41:00.086Z,46.50
2022-11-05T12:43:48.999Z,45.40
2022-11-05T12:46:44.833Z,45.70
2022-11-05T12:49:23.703Z,45.90
2022-11-05T12:52:13.703Z,44.60
2022-11-05T12:54:59.687Z,44.90
2022-11-05T12:57:29.723Z,45.10
2022-11-05T13:00:23.263Z,45.20
2022-11-05T13:03:08.897Z,45.40
2022-11-05T13:06:10.094Z,45.10
2022-11-05T13:08:40.398Z,44.90
2022-11-05T13:11:21.636Z,45.00
2022-11-05T13:14:19.490Z,44.10
2022-11-05T13:17:13.640Z,45.50
2022-11-05T13:19:56.974Z,45.80
2022-11-05T13:22:43.051Z,44.20
2022-11-05T13:25:24.088Z,44.30
2022-11-05T13:27:56.695Z,44.20
2022-11-05T13:30:28.945Z,44.50
2022-11-05T13:33:03.093Z,44.60
2022-11-05T13:35:40.855Z,43.70
2022-11-05T13:38:39.002Z,44.40
2022-11-05T13:41:15.028Z,44.20
2022-11-05T13:44:13.625Z,43.90
2022-11-05T13:46:48.610Z,44.00
2022-11-05T13:49:46.474Z,45.20
2022-11-05T13:52:25.919Z,44.50
2022-11-05T13:55:34.324Z,43.60
2022-11-05T13:58:34.938Z,43.60
2022-11-05T14:01:28.704Z,44.40
2022-11-05T14:03:56.712Z,45.20
2022-11-05T14:06:35.523Z,44.90
2022-11-05T14:09:07.605Z,45.00
2022-11-05T14:11:41.623Z,44.90
2022-11-05T14:14:17.826Z,45.50
2022-11-05T14:17:14.358Z,46.30
2022-11-05T14:20:08.334Z,46.20
2022-11-05T14:22:41.033Z,46.90
2022-11-05T14:25:20.491Z,47.10
2022-11-05T14:27:51.058Z,47.10
2022-11-05T14:30:44.920Z,47.50
2022-11-05T14:33:17.208Z,47.20
2022-11-05T14:35:44.314Z,46.70
2022-11-05T14:38:23.993Z,46.90
2022-11-05T14:41:01.045Z,46.80
2022-11-05T14:43:32.186Z,47.20
2022-11-05T14:46:06.196Z,47.50
2022-11-05T14:48:41.175Z,47.80
2022-11-05T14:51:40.315Z,47.80
2022-11-05T14:54:14.811Z,48.50
2022-11-05T14:56:56.387Z,48.30
2022-11-05T14:59:31.428Z,49.40
2022-11-05T15:02:04.329Z,49.10
2022-11-05T15:04:36.185Z,50.30
2022-11-05T15:07:03.170Z,50.80
2022-11-05T15:09:36.673Z,51.50
2022-11-05T15:12:13.843Z,51.90
2022-11-05T15:14:51.180Z,52.60
2022-11-05T15:17:42.569Z,53.20
2022-11-05T15:20:24.111Z,53.60
2022-11-05T15:22:57.093Z,54.30
2022-11-05T15:25:29.586Z,54.70
2022-11-05T15:28:03.415Z,55.30
2022-11-05T15:30:30.553Z,55.90
2022-11-05T15:33:18.487Z,56.40
2022-11-05T15:35:45.463Z,57.10
2022-11-05T15:38:26.371Z,57.30
2022-11-05T15:41:02.280Z,57.80
2022-11-05T15:43:29.348Z,57.90
2022-11-05T15:46:04.418Z,58.10
2022-11-05T15:48:32.601Z,58.60
2022-11-05T15:51:00.065Z,58.90
2022-11-05T15:54:15.676Z,59.50
2022-11-05T15:56:40.209Z,60.40
2022-11-05T15:59:19.565Z,60.60
2022-11-05T16:01:53.289Z,61.30
2022-11-05T16:04:22.196Z,61.60
2022-11-05T16:06:53.910Z,62.00
2022-11-05T16:09:25.064Z,62.20
2022-11-05T16:12:18.271Z,62.10
2022-11-05T16:15:05.046Z,62.30
2022-11-05T16:17:46.511Z,62.30
2022-11-05T16:20:33.166Z,62.40
2022-11-05T16:23:03.619Z,62.80
2022-11-05T16:25:43.286Z,63.00
2022-11-05T16:28:21.365Z,63.30
2022-11-05T16:31:06.503Z,63.60
2022-11-05T16:33:46.380Z,63.90
2022-11-05T16:36:13.483Z,64.10
2022-11-05T16:38:40.527Z,64.30
2022-11-05T16:41:12.530Z,64.60
2022-11-05T16:43:39.595Z,64.90
2022-11-05T16:46:06.777Z,65.30
2022-11-05T16:48:33.773Z,65.70
2022-11-05T16:51:00.771Z,65.90
2022-11-05T16:53:27.748Z,66.10
2022-11-05T16:55:54.678Z,66.40
2022-11-05T16:58:26.709Z,66.60
2022-11-05T17:01:02.355Z,67.00
2022-11-05T17:03:29.657Z,67.30
2022-11-05T17:05:56.628Z,67.50
2022-11-05T17:08:23.810Z,67.70
2022-11-05T17:10:50.869Z,67.80
2022-11-05T17:13:19.558Z,68.70
2022-11-05T17:15:48.983Z,68.30
2022-11-05T17:18:18.957Z,68.50
2022-11-05T17:20:52.000Z,68.70
2022-11-05T17:23:21.557Z,69.10
2022-11-05T17:25:52.303Z,69.30
2022-11-05T17:28:20.088Z,69.60
2022-11-05T17:30:52.959Z,70.00
2022-11-05T17:33:22.872Z,70.30
2022-11-05T17:35:50.657Z,70.70
2022-11-05T17:38:18.090Z,70.90
2022-11-05T17:40:45.192Z,71.10
2022-11-05T17:43:12.347Z,71.40
2022-11-05T17:45:45.283Z,71.50
2022-11-05T17:48:12.620Z,71.80
2022-11-05T17:50:41.570Z,71.90
2022-11-05T17:53:08.860Z,72.20
2022-11-05T17:55:36.550Z,72.20
2022-11-05T17:58:03.609Z,72.10
2022-11-05T18:00:31.120Z,72.10
2022-11-05T18:02:58.134Z,72.20
2022-11-05T18:05:27.576Z,72.30
2022-11-05T18:07:55.603Z,72.40
2022-11-05T18:10:23.638Z,72.50
2022-11-05T18:12:50.648Z,72.80
2022-11-05T18:15:18.050Z,73.10
2022-11-05T18:17:46.334Z,73.20
2022-11-05T18:20:19.422Z,73.30
2022-11-05T18:22:49.186Z,73.60
2022-11-05T18:25:16.565Z,73.70
2022-11-05T18:27:43.596Z,73.90
2022-11-05T18:30:11.391Z,74.10
2022-11-05T18:32:39.225Z,74.20
2022-11-05T18:35:06.407Z,74.40
2022-11-05T18:37:33.385Z,74.60
2022-11-05T18:40:00.330Z,74.80
2022-11-05T18:42:27.430Z,75.00
2022-11-05T18:44:54.563Z,75.10
2022-11-05T18:47:21.555Z,75.20
2022-11-05T18:49:48.521Z,75.30
2022-11-05T18:52:15.550Z,75.40
2022-11-05T18:54:42.750Z,75.50
2022-11-05T18:57:09.711Z,75.50
2022-11-05T18:59:39.129Z,75.70
2022-11-05T19:02:08.312Z,75.80
2022-11-05T19:04:36.831Z,76.10
2022-11-05T19:07:05.388Z,76.20
2022-11-05T19:09:36.870Z,76.30
2022-11-05T19:12:04.943Z,76.50
2022-11-05T19:14:32.369Z,76.80
2022-11-05T19:17:00.270Z,76.80
2022-11-05T19:19:27.716Z,77.10
2022-11-05T19:21:55.111Z,77.20
2022-11-05T19:24:22.145Z,77.40
2022-11-05T19:26:49.186Z,77.60
2022-11-05T19:29:16.384Z,77.80
2022-11-05T19:31:43.576Z,78.00
2022-11-05T19:34:10.510Z,78.20
2022-11-05T19:36:37.496Z,78.30
2022-11-05T19:39:08.934Z,78.40
2022-11-05T19:41:35.905Z,78.60
2022-11-05T19:44:03.179Z,78.80
2022-11-05T19:46:31.482Z,78.90
2022-11-05T19:49:00.496Z,78.90
2022-11-05T19:51:29.852Z,78.90
2022-11-05T19:53:59.922Z,78.90
2022-11-05T19:56:32.503Z,79.50
2022-11-05T19:59:00.062Z,78.40
2022-11-05T20:01:28.887Z,78.40
2022-11-05T20:03:57.936Z,78.50
2022-11-05T20:06:28.784Z,78.70
2022-11-05T20:09:21.097Z,78.80
2022-11-05T20:11:48.824Z,78.70
2022-11-05T20:14:15.868Z,78.60
2022-11-05T20:16:43.043Z,78.40
2022-11-05T20:19:13.325Z,78.20
2022-11-05T20:21:40.777Z,78.00
2022-11-05T20:24:08.853Z,78.00
2022-11-05T20:26:35.872Z,78.10
2022-11-05T20:29:03.394Z,78.00
2022-11-05T20:31:31.111Z,78.10
2022-11-05T20:33:58.256Z,78.20
2022-11-05T20:36:25.955Z,78.30
2022-11-05T20:38:56.563Z,78.40
2022-11-05T20:41:24.536Z,78.50
2022-11-05T20:43:52.021Z,78.40
2022-11-05T20:46:21.493Z,78.50
2022-11-05T20:48:48.686Z,78.50
2022-11-05T20:51:18.650Z,78.50
2022-11-05T20:53:48.995Z,78.60
2022-11-05T20:56:19.022Z,78.50
2022-11-05T20:58:47.293Z,78.50
2022-11-05T21:01:16.753Z,78.40
2022-11-05T21:03:45.182Z,78.00
2022-11-05T21:06:13.496Z,77.70
2022-11-05T21:08:40.944Z,77.80
2022-11-05T21:11:09.237Z,77.90
2022-11-05T21:13:36.486Z,77.80
2022-11-05T21:16:06.427Z,77.70
2022-11-05T21:18:35.019Z,77.70
2022-11-05T21:21:07.063Z,77.80
2022-11-05T21:23:34.063Z,78.00
2022-11-05T21:26:08.598Z,78.10
2022-11-05T21:28:38.857Z,78.10
2022-11-05T21:31:07.321Z,78.30
2022-11-05T21:33:34.528Z,78.40
2022-11-05T21:36:11.487Z,78.50
2022-11-05T21:38:39.276Z,78.70
2022-11-05T21:41:07.698Z,78.70
2022-11-05T21:43:34.842Z,78.80
2022-11-05T21:46:03.537Z,78.90
2022-11-05T21:48:31.323Z,79.10
2022-11-05T21:51:16.735Z,79.20
2022-11-05T21:54:02.190Z,79.30
2022-11-05T21:56:48.062Z,79.30
2022-11-05T21:59:36.570Z,79.40
2022-11-05T22:02:04.436Z,79.40
2022-11-05T22:04:36.630Z,79.40
2022-11-05T22:07:04.824Z,79.50
2022-11-05T22:09:32.235Z,79.60
2022-11-05T22:12:00.298Z,79.60
2022-11-05T22:14:28.428Z,79.60
2022-11-05T22:16:56.289Z,79.60
2022-11-05T22:19:24.300Z,79.80
2022-11-05T22:21:51.410Z,79.80
2022-11-05T22:24:19.247Z,79.80
2022-11-05T22:26:46.988Z,79.90
2022-11-05T22:29:14.215Z,79.90
2022-11-05T22:31:41.492Z,79.80
2022-11-05T22:34:09.765Z,79.70
2022-11-05T22:36:36.934Z,79.60
2022-11-05T22:39:05.291Z,79.70
2022-11-05T22:41:32.535Z,79.80
2022-11-05T22:43:59.553Z,80.10
2022-11-05T22:46:27.386Z,80.00
2022-11-05T22:48:56.028Z,79.90
2022-11-05T22:51:29.610Z,79.90
2022-11-05T22:53:57.474Z,79.80
2022-11-05T22:56:26.447Z,79.80
2022-11-05T22:58:54.171Z,79.80
2022-11-05T23:01:22.620Z,79.80
2022-11-05T23:03:51.733Z,80.00
2022-11-05T23:06:38.898Z,80.00
2022-11-05T23:09:31.407Z,80.10
2022-11-05T23:11:58.958Z,80.20
2022-11-05T23:14:26.330Z,80.50
2022-11-05T23:17:11.933Z,80.50
2022-11-05T23:19:57.215Z,80.60
2022-11-05T23:22:46.511Z,80.90
2022-11-05T23:25:17.250Z,80.80
2022-11-05T23:27:45.984Z,80.70
2022-11-05T23:30:21.985Z,80.60
2022-11-05T23:32:50.296Z,80.80
2022-11-05T23:35:38.584Z,80.90
2022-11-05T23:38:23.975Z,81.10
2022-11-05T23:41:09.365Z,81.30
2022-11-05T23:43:54.736Z,81.40
2022-11-05T23:46:40.124Z,81.30
2022-11-05T23:49:07.276Z,81.10
2022-11-05T23:51:34.302Z,81.40
2022-11-05T23:54:01.228Z,81.60
2022-11-05T23:56:28.232Z,81.70
2022-11-05T23:58:55.277Z,81.60
